Terminal Aerodrome Forecast
Issued by NWS Blacksburg, VA

Home | Current Version | Previous Version | Text Only | Print | Product List | Glossary On
Versions: 1 2 3 4 5 6 7 8 9 10 11 12 13 14 15 16 17 18 19 20 21 22 23 24 25 26 27 28
000
FTUS41 KRNK 220925 AAA
TAFLYH
TAF AMD
KLYH 220925Z 2209/2306 03005KT P6SM OVC028
     FM221100 04004KT P6SM -FZRA OVC025
     FM221400 04007KT 3SM -RA SCT004 OVC015
     FM221900 04005KT 5SM BR OVC015
     FM230000 00000KT 2SM BR OVC007=

USA.gov is the U.S. government's official web portal to all federal, state and local government web resources and services.